Time;durP1;ratioP1;P1;durP2;ratioP2;P2;SDS_P1;SDS_P2;PMS_P1;PMS_P2;Temp;Humidity;BMP_temperature;BMP_pressure;BME280_temperature;BME280_humidity;BME280_pressure;Samples;Min_cycle;Max_cycle;Signal;HPM_P1;HPM_P2
2023/10/25 00:00:41;;;;;;;;;;;;;;;16.56;61.06;95917.19;4212942;28;5683;-62
2023/10/25 00:02:44;;;;;;;;;;;;;;;16.55;60.95;95912.91;4217328;28;5667;-63
2023/10/25 00:04:47;;;;;;;;;;;;;;;16.55;61.06;95911.03;4213941;28;5679;-63
2023/10/25 00:06:51;;;;;;;;;;;;;;;16.57;61.09;95913.44;4217042;28;5753;-62
2023/10/25 00:08:54;;;;;;;;;;;;;;;16.58;61.23;95915.84;4216983;28;5772;-62
2023/10/25 00:11:05;;;;;;;;;;;;;;;16.60;61.05;95918.28;4216149;28;5678;-63
2023/10/25 00:13:08;;;;;;;;;;;;;;;16.60;60.97;95903.06;4217219;28;5727;-63
2023/10/25 00:15:11;;;;;;;;;;;;;;;16.62;61.15;95910.81;4217749;28;5642;-64
2023/10/25 00:17:14;;;;;;;;;;;;;;;16.63;61.12;95907.09;4214898;28;5809;-63
2023/10/25 00:19:17;;;;;;;;;;;;;;;16.64;61.01;95903.34;4209256;28;6554;-63
2023/10/25 00:21:20;;;;;;;;;;;;;;;16.64;61.13;95900.69;4215793;28;5652;-63
2023/10/25 00:23:23;;;;;;;;;;;;;;;16.66;61.07;95905.78;4218126;28;5829;-63
2023/10/25 00:25:26;;;;;;;;;;;;;;;16.66;61.15;95901.25;4214703;28;5663;-63
2023/10/25 00:27:29;;;;;;;;;;;;;;;16.68;61.08;95899.19;4212326;28;6819;-63
2023/10/25 00:29:32;;;;;;;;;;;;;;;16.68;61.24;95893.84;4215293;28;7694;-63
2023/10/25 00:31:35;;;;;;;;;;;;;;;16.69;61.39;95892.78;4217721;28;5715;-63
2023/10/25 00:33:38;;;;;;;;;;;;;;;16.69;61.25;95892.78;4217912;28;5841;-63
2023/10/25 00:35:41;;;;;;;;;;;;;;;16.70;61.29;95883.72;4213424;28;5713;-63
2023/10/25 00:37:44;;;;;;;;;;;;;;;16.71;61.23;95882.66;4212295;28;5720;-63
2023/10/25 00:39:48;;;;;;;;;;;;;;;16.71;61.37;95881.84;4217976;28;5778;-63
2023/10/25 00:41:51;;;;;;;;;;;;;;;16.70;61.29;95875.69;4217762;28;6356;-62
2023/10/25 00:43:54;;;;;;;;;;;;;;;16.70;61.42;95875.69;4217515;28;5682;-62
2023/10/25 00:46:04;;;;;;;;;;;;;;;16.71;61.39;95877.31;4217623;28;5676;-62
2023/10/25 00:48:07;;;;;;;;;;;;;;;16.70;61.29;95875.69;4217813;28;5857;-63
2023/10/25 00:50:12;;;;;;;;;;;;;;;16.70;61.33;95875.69;4203625;28;5665;-63
2023/10/25 00:52:15;;;;;;;;;;;;;;;16.72;61.44;95878.13;4215414;28;5793;-63
2023/10/25 00:54:18;;;;;;;;;;;;;;;16.72;61.47;95876.25;4217446;28;5679;-63
2023/10/25 00:56:25;;;;;;;;;;;;;;;16.73;61.47;95875.19;4217600;28;5667;-63
2023/10/25 00:58:29;;;;;;;;;;;;;;;16.74;61.58;95868.78;4211310;28;5749;-62
2023/10/25 01:00:33;;;;;;;;;;;;;;;16.73;61.46;95872.53;4217529;28;5671;-62
2023/10/25 01:02:36;;;;;;;;;;;;;;;16.74;61.52;95874.13;4217209;28;5726;-63
2023/10/25 01:04:39;;;;;;;;;;;;;;;16.75;61.44;95881.06;4217627;28;5835;-63
2023/10/25 01:06:42;;;;;;;;;;;;;;;16.76;61.51;95884.53;4217309;28;5674;-63
2023/10/25 01:08:44;;;;;;;;;;;;;;;16.75;61.71;95878.41;4217438;28;5939;-63
2023/10/25 01:10:50;;;;;;;;;;;;;;;16.75;61.67;95873.06;4203536;28;5685;-63
2023/10/25 01:12:54;;;;;;;;;;;;;;;16.75;61.80;95865.06;4213175;28;5626;-63
2023/10/25 01:14:57;;;;;;;;;;;;;;;16.74;61.74;95876.78;4217627;28;5745;-63
2023/10/25 01:17:00;;;;;;;;;;;;;;;16.73;61.79;95869.84;4217025;28;5762;-64
2023/10/25 01:19:03;;;;;;;;;;;;;;;16.72;61.81;95862.09;4217388;28;5779;-63
2023/10/25 01:21:05;;;;;;;;;;;;;;;16.71;61.82;95853.28;4217782;27;6055;-63
2023/10/25 01:23:09;;;;;;;;;;;;;;;16.73;61.72;95867.19;4216165;28;6562;-63
2023/10/25 01:25:11;;;;;;;;;;;;;;;16.72;61.84;95857.56;4214014;28;5626;-63
2023/10/25 01:27:14;;;;;;;;;;;;;;;16.73;61.92;95859.19;4217157;28;5679;-63
2023/10/25 01:29:17;;;;;;;;;;;;;;;16.73;61.83;95853.84;4216837;28;5700;-62
2023/10/25 01:31:20;;;;;;;;;;;;;;;16.71;61.66;95845.28;4216827;28;5626;-62
2023/10/25 01:33:23;;;;;;;;;;;;;;;16.71;61.80;95850.63;4217280;28;5671;-63
2023/10/25 01:35:26;;;;;;;;;;;;;;;16.71;62.09;95845.28;4217211;28;6527;-63
2023/10/25 01:37:28;;;;;;;;;;;;;;;16.69;61.75;95846.59;4217107;28;5833;-64
2023/10/25 01:39:33;;;;;;;;;;;;;;;16.66;61.59;95847.91;4217339;28;5688;-63
2023/10/25 01:41:35;;;;;;;;;;;;;;;16.63;61.83;95843.03;4217124;28;5703;-63
2023/10/25 01:43:38;;;;;;;;;;;;;;;16.63;61.82;95843.03;4217140;28;5770;-63
2023/10/25 01:45:41;;;;;;;;;;;;;;;16.64;61.70;95833.19;4217194;28;5726;-63
2023/10/25 01:47:44;;;;;;;;;;;;;;;16.62;61.70;95830.75;4217136;28;5638;-64
2023/10/25 01:49:47;;;;;;;;;;;;;;;16.59;61.90;95824.06;4216889;28;5663;-64
2023/10/25 01:51:50;;;;;;;;;;;;;;;16.58;61.75;95827.00;4217125;28;5671;-63
2023/10/25 01:53:53;;;;;;;;;;;;;;;16.57;61.92;95818.19;4215969;28;5757;-63
2023/10/25 01:55:56;;;;;;;;;;;;;;;16.57;61.87;95820.06;4216915;28;5795;-63
2023/10/25 01:57:59;;;;;;;;;;;;;;;16.60;61.65;95830.22;4216825;28;5825;-63
2023/10/25 02:00:03;;;;;;;;;;;;;;;16.58;61.68;95816.34;4220090;28;6481;-63
2023/10/25 02:02:06;;;;;;;;;;;;;;;16.59;61.94;95818.75;4210471;28;5772;-62
2023/10/25 02:04:10;;;;;;;;;;;;;;;16.57;61.78;95818.19;4216879;28;5844;-63
2023/10/25 02:06:14;;;;;;;;;;;;;;;16.57;61.64;95815.53;4232755;28;5665;-63
2023/10/25 02:08:17;;;;;;;;;;;;;;;16.58;61.72;95811.81;4224310;28;5660;-63
2023/10/25 02:10:20;;;;;;;;;;;;;;;16.58;61.80;95808.31;4216838;28;6364;-62
2023/10/25 02:12:24;;;;;;;;;;;;;;;16.58;61.67;95803.00;4217244;28;5774;-62
2023/10/25 02:14:26;;;;;;;;;;;;;;;16.59;61.79;95801.94;4217856;28;6005;-63
2023/10/25 02:16:29;;;;;;;;;;;;;;;16.60;61.69;95800.88;4217306;28;5885;-63
2023/10/25 02:18:32;;;;;;;;;;;;;;;16.60;61.65;95806.19;4217583;28;5758;-62
2023/10/25 02:20:35;;;;;;;;;;;;;;;16.60;61.69;95811.53;4214658;28;5766;-64
2023/10/25 02:22:38;;;;;;;;;;;;;;;16.60;61.82;95803.53;4216863;28;5814;-62
2023/10/25 02:24:41;;;;;;;;;;;;;;;16.60;61.64;95806.19;4216572;28;5623;-62
2023/10/25 02:26:43;;;;;;;;;;;;;;;16.59;61.86;95810.75;4216762;28;6918;-63
2023/10/25 02:28:48;;;;;;;;;;;;;;;16.59;61.97;95820.59;4216922;28;6322;-63
2023/10/25 02:30:50;;;;;;;;;;;;;;;16.57;61.69;95815.53;4220100;28;5675;-62
2023/10/25 02:32:53;;;;;;;;;;;;;;;16.58;61.76;95814.47;4216694;28;5750;-63
2023/10/25 02:34:57;;;;;;;;;;;;;;;16.59;61.80;95820.59;4218364;28;5799;-63
2023/10/25 02:37:00;;;;;;;;;;;;;;;16.59;61.89;95820.59;4215437;28;5742;-62
2023/10/25 02:39:03;;;;;;;;;;;;;;;16.59;61.97;95815.28;4219820;28;5870;-63
2023/10/25 02:41:06;;;;;;;;;;;;;;;16.60;62.00;95823.03;4219634;28;7078;-63
2023/10/25 02:43:08;;;;;;;;;;;;;;;16.61;61.90;95815.81;4219672;28;5679;-63
2023/10/25 02:45:13;;;;;;;;;;;;;;;16.61;61.96;95810.47;4219706;28;5662;-63
2023/10/25 02:47:16;;;;;;;;;;;;;;;16.61;62.03;95810.47;4221201;28;5777;-63
2023/10/25 02:49:18;;;;;;;;;;;;;;;16.60;61.91;95814.22;4218959;28;5671;-63
2023/10/25 02:51:21;;;;;;;;;;;;;;;16.59;61.95;95805.41;4219411;28;5757;-63
2023/10/25 02:53:24;;;;;;;;;;;;;;;16.58;61.86;95800.31;4220605;28;6391;-63
2023/10/25 02:55:26;;;;;;;;;;;;;;;16.59;61.88;95799.25;4213873;28;5742;-62
2023/10/25 02:57:29;;;;;;;;;;;;;;;16.59;62.11;95804.59;4219488;28;5812;-62
2023/10/25 02:59:32;;;;;;;;;;;;;;;16.60;61.95;95790.19;4219422;28;5893;-62
2023/10/25 03:01:36;;;;;;;;;;;;;;;16.60;61.96;95796.34;4219269;28;5674;-63
2023/10/25 03:03:38;;;;;;;;;;;;;;;16.60;62.01;95800.88;4219403;28;5631;-64
2023/10/25 03:05:41;;;;;;;;;;;;;;;16.60;61.99;95795.53;4219155;28;5659;-63
2023/10/25 03:07:43;;;;;;;;;;;;;;;16.63;62.20;95796.88;4219234;28;5777;-64
2023/10/25 03:09:46;;;;;;;;;;;;;;;16.63;62.09;95791.53;4210885;28;5823;-63
2023/10/25 03:11:49;;;;;;;;;;;;;;;16.62;62.00;95790.75;4218897;28;5638;-63
2023/10/25 03:13:52;;;;;;;;;;;;;;;16.63;62.08;95788.88;4219167;28;5675;-64
2023/10/25 03:15:55;;;;;;;;;;;;;;;16.62;62.06;95781.94;4219024;28;5637;-63
2023/10/25 03:17:58;;;;;;;;;;;;;;;16.60;62.08;95790.19;4216844;28;6388;-63
2023/10/25 03:20:04;;;;;;;;;;;;;;;16.59;62.13;95778.72;4222146;28;5683;-61
2023/10/25 03:22:07;;;;;;;;;;;;;;;16.60;62.21;95790.19;4219001;28;5085;-62
2023/10/25 03:24:10;;;;;;;;;;;;;;;16.61;62.07;95791.81;4218844;28;5695;-62
2023/10/25 03:26:13;;;;;;;;;;;;;;;16.60;62.19;95793.66;4218959;28;5655;-62
2023/10/25 03:28:16;;;;;;;;;;;;;;;16.61;62.12;95786.47;4220649;28;5649;-63
2023/10/25 03:30:19;;;;;;;;;;;;;;;16.60;62.25;95785.66;4217570;28;5762;-63
2023/10/25 03:32:22;;;;;;;;;;;;;;;16.59;62.10;95793.94;4218955;28;5667;-64
2023/10/25 03:34:26;;;;;;;;;;;;;;;16.58;62.12;95784.31;4223581;28;5662;-63
2023/10/25 03:36:29;;;;;;;;;;;;;;;16.58;62.25;95784.31;4213092;28;5801;-63
2023/10/25 03:38:33;;;;;;;;;;;;;;;16.58;62.10;95776.31;4218797;28;5085;-62
2023/10/25 03:40:36;;;;;;;;;;;;;;;16.57;62.32;95774.69;4218539;28;7690;-62
2023/10/25 03:42:39;;;;;;;;;;;;;;;16.56;62.25;95765.91;4217866;28;5671;-62
2023/10/25 03:44:42;;;;;;;;;;;;;;;16.58;62.13;95766.44;4218464;28;5746;-62
2023/10/25 03:46:45;;;;;;;;;;;;;;;16.58;62.09;95771.78;4217450;28;6359;-62
2023/10/25 03:48:49;;;;;;;;;;;;;;;16.58;61.99;95762.97;4218331;28;5653;-62
2023/10/25 03:50:53;;;;;;;;;;;;;;;16.58;62.25;95749.63;4218363;28;5837;-62
2023/10/25 03:52:56;;;;;;;;;;;;;;;16.57;62.12;95756.84;4218580;28;5791;-62
2023/10/25 03:55:00;;;;;;;;;;;;;;;16.58;61.89;95757.63;4217718;28;5751;-63
2023/10/25 03:57:03;;;;;;;;;;;;;;;16.58;62.06;95754.97;4218358;28;5683;-63
2023/10/25 03:59:06;;;;;;;;;;;;;;;16.58;61.95;95757.63;4217899;28;5707;-63
2023/10/25 04:01:09;;;;;;;;;;;;;;;16.57;62.15;95746.16;4228336;28;5649;-63
2023/10/25 04:03:14;;;;;;;;;;;;;;;16.58;61.86;95752.31;4224445;28;5797;-62
2023/10/25 04:05:17;;;;;;;;;;;;;;;16.57;61.96;95745.34;4217773;28;5675;-62
2023/10/25 04:07:21;;;;;;;;;;;;;;;16.57;62.02;95751.50;4217588;28;5687;-62
2023/10/25 04:09:24;;;;;;;;;;;;;;;16.57;62.08;95748.03;4215125;28;5906;-62
2023/10/25 04:11:27;;;;;;;;;;;;;;;16.56;61.97;95751.75;4201041;28;5704;-62
2023/10/25 04:13:37;;;;;;;;;;;;;;;16.57;61.94;95726.69;4216878;28;5644;-61
2023/10/25 04:15:40;;;;;;;;;;;;;;;16.58;61.94;95736.28;4216805;28;6332;-61
2023/10/25 04:17:42;;;;;;;;;;;;;;;16.58;62.00;95728.28;4217442;28;5943;-62
2023/10/25 04:19:45;;;;;;;;;;;;;;;16.59;61.94;95745.91;4219906;28;5774;-61
2023/10/25 04:21:48;;;;;;;;;;;;;;;16.60;62.07;95739.50;4217441;28;5784;-62
2023/10/25 04:23:52;;;;;;;;;;;;;;;16.60;61.83;95740.31;4221447;28;5656;-61
2023/10/25 04:26:04;;;;;;;;;;;;;;;16.61;62.01;95733.09;4214003;28;5692;-62
2023/10/25 04:28:06;;;;;;;;;;;;;;;16.62;61.96;95734.72;4210657;28;5683;-62
2023/10/25 04:30:11;;;;;;;;;;;;;;;16.62;61.96;95729.38;4216747;28;5750;-62
2023/10/25 04:32:14;;;;;;;;;;;;;;;16.62;62.02;95729.38;4217963;28;5682;-62
2023/10/25 04:34:16;;;;;;;;;;;;;;;16.63;62.05;95732.84;4217752;28;5680;-62
2023/10/25 04:36:19;;;;;;;;;;;;;;;16.62;62.02;95741.91;4218109;28;5659;-62
2023/10/25 04:38:23;;;;;;;;;;;;;;;16.62;62.05;95732.03;4217645;28;5571;-62
2023/10/25 04:40:27;;;;;;;;;;;;;;;16.61;62.21;95738.44;4213243;28;7723;-62
2023/10/25 04:42:30;;;;;;;;;;;;;;;16.61;62.00;95733.09;4201279;28;5918;-62
2023/10/25 04:44:33;;;;;;;;;;;;;;;16.59;62.04;95727.22;4209216;28;5679;-62
2023/10/25 04:46:36;;;;;;;;;;;;;;;16.59;61.88;95729.88;4213102;28;5675;-62
2023/10/25 04:48:39;;;;;;;;;;;;;;;16.61;61.96;95738.44;4217078;28;5663;-62
2023/10/25 04:50:42;;;;;;;;;;;;;;;16.60;61.84;95726.16;4223524;28;6249;-62
2023/10/25 04:52:45;;;;;;;;;;;;;;;16.59;61.83;95730.69;4217997;28;5668;-62
2023/10/25 04:54:48;;;;;;;;;;;;;;;16.59;61.95;95721.88;4216755;28;6485;-62
2023/10/25 04:56:56;;;;;;;;;;;;;;;16.59;61.82;95729.88;4207243;28;5754;-62
2023/10/25 04:58:58;;;;;;;;;;;;;;;16.58;61.85;95722.94;4217208;28;5663;-62
2023/10/25 05:01:01;;;;;;;;;;;;;;;16.59;61.94;95727.22;4217516;28;5782;-64
2023/10/25 05:03:10;;;;;;;;;;;;;;;16.58;61.90;95725.63;4215342;28;5751;-63
2023/10/25 05:05:14;;;;;;;;;;;;;;;16.57;61.81;95722.16;4213746;28;5650;-63
2023/10/25 05:07:16;;;;;;;;;;;;;;;16.58;61.90;95725.63;4213616;28;5687;-63
2023/10/25 05:09:19;;;;;;;;;;;;;;;16.58;61.82;95725.63;4208628;28;5835;-64
2023/10/25 05:11:29;;;;;;;;;;;;;;;16.58;61.94;95725.63;4211856;28;5862;-62
2023/10/25 05:13:34;;;;;;;;;;;;;;;16.58;61.86;95718.41;4210767;28;5753;-63
2023/10/25 05:15:37;;;;;;;;;;;;;;;16.56;61.88;95722.41;4212711;28;5626;-63
2023/10/25 05:17:41;;;;;;;;;;;;;;;16.60;61.74;95715.50;4216389;28;5738;-63
2023/10/25 05:19:44;;;;;;;;;;;;;;;16.59;61.63;95711.22;4217010;28;5687;-63
2023/10/25 05:21:52;;;;;;;;;;;;;;;16.59;61.67;95714.69;4216505;28;5766;-63
2023/10/25 05:23:54;;;;;;;;;;;;;;;16.60;61.69;95710.16;4215319;28;5663;-63
2023/10/25 05:25:58;;;;;;;;;;;;;;;16.59;61.84;95709.34;4207638;28;5723;-64
2023/10/25 05:28:02;;;;;;;;;;;;;;;16.61;61.78;95701.09;4217530;28;5914;-64
2023/10/25 05:30:07;;;;;;;;;;;;;;;16.62;61.70;95701.88;4216620;28;7704;-64
2023/10/25 05:32:14;;;;;;;;;;;;;;;16.62;61.76;95697.34;4216419;28;5846;-64
2023/10/25 05:34:18;;;;;;;;;;;;;;;16.62;61.83;95696.56;4215083;28;5679;-63
2023/10/25 05:36:24;;;;;;;;;;;;;;;16.62;61.81;95702.69;4209745;28;5665;-63
2023/10/25 05:38:29;;;;;;;;;;;;;;;16.63;61.92;95709.63;4214190;28;5679;-62
2023/10/25 05:40:33;;;;;;;;;;;;;;;16.61;61.67;95701.09;4213998;28;5695;-63
2023/10/25 05:42:43;;;;;;;;;;;;;;;16.62;61.79;95702.69;4214046;28;5652;-63
2023/10/25 05:44:47;;;;;;;;;;;;;;;16.62;61.93;95702.69;4212750;28;5738;-63
2023/10/25 05:46:51;;;;;;;;;;;;;;;16.63;61.76;95698.97;4213699;28;5801;-63
2023/10/25 05:48:55;;;;;;;;;;;;;;;16.64;61.82;95710.44;4219055;28;5683;-64
2023/10/25 05:51:04;;;;;;;;;;;;;;;16.64;61.79;95699.75;4213904;28;5683;-63
2023/10/25 05:53:08;;;;;;;;;;;;;;;16.64;61.73;95697.88;4213603;28;5774;-65
2023/10/25 05:55:13;;;;;;;;;;;;;;;16.64;61.71;95700.56;4206676;28;5671;-64
2023/10/25 05:57:16;;;;;;;;;;;;;;;16.67;61.76;95701.94;4212477;28;5723;-64
2023/10/25 05:59:20;;;;;;;;;;;;;;;16.68;62.06;95706.25;4209653;28;5709;-64
2023/10/25 06:01:31;;;;;;;;;;;;;;;16.67;62.05;95700.06;4205085;28;5841;-64
2023/10/25 06:03:37;;;;;;;;;;;;;;;16.66;61.88;95695.78;4213371;28;6687;-65
2023/10/25 06:05:42;;;;;;;;;;;;;;;16.63;62.04;95685.63;4209587;28;5765;-66
2023/10/25 06:07:45;;;;;;;;;;;;;;;16.63;61.97;95685.63;4215358;28;5676;-64
2023/10/25 06:09:48;;;;;;;;;;;;;;;16.63;61.93;95688.28;4214212;28;5754;-64
2023/10/25 06:11:53;;;;;;;;;;;;;;;16.63;61.89;95688.28;4196704;28;5724;-64
2023/10/25 06:13:56;;;;;;;;;;;;;;;16.65;61.74;95690.69;4194636;28;5976;-66
2023/10/25 06:15:59;;;;;;;;;;;;;;;16.65;61.71;95686.19;4201203;28;5841;-66
2023/10/25 06:18:02;;;;;;;;;;;;;;;16.62;61.83;95681.34;4196784;28;5987;-66
2023/10/25 06:20:10;;;;;;;;;;;;;;;16.63;61.79;95687.47;4194717;28;5710;-66
2023/10/25 06:22:12;;;;;;;;;;;;;;;16.63;61.60;95692.81;4194314;28;5713;-66
2023/10/25 06:24:15;;;;;;;;;;;;;;;16.62;61.68;95686.69;4196150;28;5726;-69
2023/10/25 06:26:17;;;;;;;;;;;;;;;16.60;61.43;95694.16;4196731;28;5677;-66
2023/10/25 06:28:20;;;;;;;;;;;;;;;16.59;61.57;95696.00;4202336;28;5790;-66
2023/10/25 06:30:23;;;;;;;;;;;;;;;16.59;61.41;95692.53;4198458;28;6655;-66
2023/10/25 06:32:26;;;;;;;;;;;;;;;16.59;61.33;95687.19;4198080;28;5808;-65
2023/10/25 06:34:29;;;;;;;;;;;;;;;16.59;61.16;95687.19;4195888;28;5810;-64
2023/10/25 06:36:34;;;;;;;;;;;;;;;16.59;61.21;95690.66;4193965;28;5672;-62
2023/10/25 06:38:37;;;;;;;;;;;;;;;16.60;61.27;95688.81;4190806;28;5888;-61
2023/10/25 06:40:41;;;;;;;;;;;;;;;16.61;61.23;95685.06;4192220;28;6522;-65
2023/10/25 06:42:45;;;;;;;;;;;;;;;16.61;61.37;95682.41;4202380;28;6432;-69
2023/10/25 06:44:48;;;;;;;;;;;;;;;16.63;61.32;95672.28;4199377;28;5277;-68
2023/10/25 06:46:52;;;;;;;;;;;;;;;16.66;61.27;95677.13;4196319;28;5693;-75
2023/10/25 06:48:56;;;;;;;;;;;;;;;16.67;61.08;95667.25;4198035;28;5864;-70
2023/10/25 06:51:00;;;;;;;;;;;;;;;16.67;61.23;95668.03;4202036;28;5903;-71
2023/10/25 06:53:05;;;;;;;;;;;;;;;16.69;61.07;95671.28;4194990;28;5718;-71
2023/10/25 06:55:09;;;;;;;;;;;;;;;16.68;61.22;95671.53;4205563;28;5715;-71
2023/10/25 06:57:12;;;;;;;;;;;;;;;16.69;61.13;95676.63;4192534;28;5888;-81
2023/10/25 06:59:16;;;;;;;;;;;;;;;16.69;61.32;95679.28;4193899;28;5755;-62
2023/10/25 07:01:21;;;;;;;;;;;;;;;16.69;61.14;95676.63;4183805;28;5845;-63
2023/10/25 07:03:31;;;;;;;;;;;;;;;16.68;60.92;95677.69;4191451;28;5829;-64
2023/10/25 07:05:35;;;;;;;;;;;;;;;16.68;61.24;95680.34;4192733;28;5767;-64
2023/10/25 07:07:38;;;;;;;;;;;;;;;16.67;61.01;95680.59;4197135;28;5869;-63
2023/10/25 07:09:43;;;;;;;;;;;;;;;16.67;61.14;95680.59;4199885;28;5677;-64
2023/10/25 07:11:47;;;;;;;;;;;;;;;16.68;61.10;95676.88;4216630;28;5672;-64
2023/10/25 07:13:48;;;;;;;;;;;;;;;16.68;61.12;95680.34;4215903;28;5095;-64
2023/10/25 07:15:52;;;;;;;;;;;;;;;16.66;60.86;95682.44;4217676;28;5672;-64
2023/10/25 07:17:55;;;;;;;;;;;;;;;16.67;61.06;95685.91;4216688;28;5721;-64
2023/10/25 07:19:59;;;;;;;;;;;;;;;16.68;61.16;95680.34;4215297;28;5823;-63
2023/10/25 07:22:02;;;;;;;;;;;;;;;16.69;61.14;95676.63;4215353;28;5833;-64
2023/10/25 07:24:06;;;;;;;;;;;;;;;16.69;61.00;95668.63;4215424;28;5762;-64
2023/10/25 07:26:11;;;;;;;;;;;;;;;16.70;61.10;95675.56;4210285;28;5697;-64
2023/10/25 07:28:14;;;;;;;;;;;;;;;16.71;61.08;95679.84;4216995;28;6466;-63
2023/10/25 07:30:17;;;;;;;;;;;;;;;16.71;61.20;95674.50;4209613;28;5818;-62
2023/10/25 07:32:19;;;;;;;;;;;;;;;16.72;61.02;95670.75;4217165;28;5626;-64
2023/10/25 07:34:22;;;;;;;;;;;;;;;16.75;61.08;95670.22;4211714;28;5762;-64
2023/10/25 07:36:25;;;;;;;;;;;;;;;16.76;61.06;95661.19;4216801;28;5766;-63
2023/10/25 07:38:28;;;;;;;;;;;;;;;16.76;61.18;95655.03;4213719;28;5685;-63
2023/10/25 07:40:30;;;;;;;;;;;;;;;16.75;61.00;95653.41;4217119;28;5659;-64
2023/10/25 07:42:34;;;;;;;;;;;;;;;16.74;60.85;95647.28;4215194;28;6383;-64
2023/10/25 07:44:37;;;;;;;;;;;;;;;16.75;61.09;95646.22;4211621;28;5738;-63
2023/10/25 07:46:40;;;;;;;;;;;;;;;16.75;61.09;95648.88;4214443;28;5695;-63
2023/10/25 07:48:44;;;;;;;;;;;;;;;16.72;61.02;95635.25;4216252;28;5762;-64
2023/10/25 07:50:47;;;;;;;;;;;;;;;16.71;61.03;95631.78;4215406;28;5898;-64
2023/10/25 07:52:51;;;;;;;;;;;;;;;16.72;60.95;95637.94;4216277;28;6537;-64
2023/10/25 07:54:54;;;;;;;;;;;;;;;16.74;61.15;95641.94;4215548;28;5679;-64
2023/10/25 07:56:57;;;;;;;;;;;;;;;16.75;60.98;95640.88;4217135;28;5854;-64
2023/10/25 07:59:04;;;;;;;;;;;;;;;16.76;60.85;95639.00;4216578;28;5660;-63
2023/10/25 08:01:07;;;;;;;;;;;;;;;16.78;61.01;95644.91;4216516;28;5853;-63
2023/10/25 08:03:13;;;;;;;;;;;;;;;16.84;60.84;95647.34;4215753;28;5788;-64
2023/10/25 08:05:16;;;;;;;;;;;;;;;16.90;60.74;95655.38;4212935;28;5766;-63
2023/10/25 08:07:19;;;;;;;;;;;;;;;16.93;60.71;95650.31;4217040;28;5701;-63
2023/10/25 08:09:22;;;;;;;;;;;;;;;16.95;60.78;95647.38;4216850;28;5766;-64
2023/10/25 08:11:25;;;;;;;;;;;;;;;16.94;60.87;95667.13;4217884;28;5638;-64
2023/10/25 08:13:28;;;;;;;;;;;;;;;16.94;60.77;95667.13;4224165;28;5733;-64
2023/10/25 08:15:34;;;;;;;;;;;;;;;16.93;60.62;95660.19;4211418;28;5750;-63
2023/10/25 08:17:37;;;;;;;;;;;;;;;16.92;60.88;95656.72;4216638;28;5770;-63
2023/10/25 08:19:40;;;;;;;;;;;;;;;16.93;60.76;95652.97;4216411;28;5808;-64
2023/10/25 08:21:44;;;;;;;;;;;;;;;16.95;60.91;95661.53;4216610;28;5113;-63
2023/10/25 08:23:51;;;;;;;;;;;;;;;16.96;60.89;95670.34;4217162;28;5747;-64
2023/10/25 08:25:54;;;;;;;;;;;;;;;16.97;60.84;95671.94;4216844;28;5755;-64
2023/10/25 08:27:57;;;;;;;;;;;;;;;16.98;60.76;95681.56;4215744;28;5539;-64
2023/10/25 08:30:00;;;;;;;;;;;;;;;16.96;60.67;95678.34;4216661;28;5715;-64
2023/10/25 08:32:06;;;;;;;;;;;;;;;16.94;60.71;95664.47;4213883;28;5754;-64
2023/10/25 08:34:11;;;;;;;;;;;;;;;16.95;60.50;95679.41;4216277;28;5630;-64
2023/10/25 08:36:14;;;;;;;;;;;;;;;16.93;60.63;95679.69;4216048;28;5963;-64
2023/10/25 08:38:17;;;;;;;;;;;;;;;16.93;60.67;95678.88;4209113;28;5750;-64
2023/10/25 08:40:20;;;;;;;;;;;;;;;16.92;60.61;95675.41;4216205;28;5754;-64
2023/10/25 08:42:23;;;;;;;;;;;;;;;16.95;60.45;95666.88;4216477;28;5663;-64
2023/10/25 08:44:26;;;;;;;;;;;;;;;16.98;60.48;95665.53;4216575;28;5667;-64
2023/10/25 08:46:29;;;;;;;;;;;;;;;17.00;60.45;95663.44;4213838;28;5846;-64
2023/10/25 08:48:34;;;;;;;;;;;;;;;17.00;60.47;95655.44;4214320;28;5770;-63
2023/10/25 08:50:39;;;;;;;;;;;;;;;16.99;60.42;95659.13;4209937;28;5775;-64
2023/10/25 08:52:45;;;;;;;;;;;;;;;17.00;60.31;95658.09;4214552;28;5675;-63
2023/10/25 08:54:49;;;;;;;;;;;;;;;17.01;60.47;95663.16;4214727;28;5783;-64
2023/10/25 08:56:52;;;;;;;;;;;;;;;17.02;60.43;95666.63;4211867;28;5675;-64
2023/10/25 08:58:58;;;;;;;;;;;;;;;17.03;60.39;95665.56;4210129;28;5663;-64
2023/10/25 09:01:02;;;;;;;;;;;;;;;17.01;60.39;95676.53;4212888;28;5691;-64
2023/10/25 09:03:04;;;;;;;;;;;;;;;17.00;60.46;95682.94;4213207;28;5912;-64
2023/10/25 09:05:09;;;;;;;;;;;;;;;17.00;60.28;95676.78;4211663;28;5671;-64
2023/10/25 09:07:29;;;;;;;;;;;;;;;16.98;60.58;95682.34;4214835;28;5671;-64
2023/10/25 09:09:40;;;;;;;;;;;;;;;16.97;60.40;95688.75;4210417;28;7224;-64
2023/10/25 09:11:44;;;;;;;;;;;;;;;16.98;60.52;95668.22;4216130;28;5652;-63
2023/10/25 09:13:55;;;;;;;;;;;;;;;16.98;60.24;95661.00;4215494;28;5645;-63
2023/10/25 09:16:05;;;;;;;;;;;;;;;16.98;60.26;95652.19;4216602;28;5638;-64
2023/10/25 09:18:09;;;;;;;;;;;;;;;16.99;60.48;95656.47;4206682;28;5736;-64
2023/10/25 09:20:13;;;;;;;;;;;;;;;17.01;60.38;95662.38;4208367;28;5774;-63
2023/10/25 09:22:25;;;;;;;;;;;;;;;17.01;60.51;95665.84;4216680;28;5684;-63
2023/10/25 09:24:28;;;;;;;;;;;;;;;17.00;60.49;95661.56;4217034;28;5787;-64
2023/10/25 09:26:35;;;;;;;;;;;;;;;17.01;60.71;95662.38;4220892;28;5663;-64
2023/10/25 09:28:38;;;;;;;;;;;;;;;17.02;60.62;95662.09;4214682;28;5663;-64
2023/10/25 09:30:41;;;;;;;;;;;;;;;17.01;60.70;95652.50;4209560;28;5821;-63
2023/10/25 09:32:44;;;;;;;;;;;;;;;17.00;60.67;95650.09;4216683;28;5667;-64
2023/10/25 09:34:49;;;;;;;;;;;;;;;16.99;60.52;95645.78;4214728;28;5905;-63
2023/10/25 09:36:54;;;;;;;;;;;;;;;17.00;60.83;95644.75;4210207;28;5821;-63
2023/10/25 09:38:57;;;;;;;;;;;;;;;17.01;60.66;95644.47;4215481;28;5750;-64
2023/10/25 09:41:02;;;;;;;;;;;;;;;17.03;60.64;95638.88;4214805;28;5740;-63
2023/10/25 09:43:14;;;;;;;;;;;;;;;17.04;60.67;95627.94;4215329;28;5652;-64
2023/10/25 09:45:24;;;;;;;;;;;;;;;17.06;60.90;95630.34;4219347;28;5741;-63
2023/10/25 09:47:35;;;;;;;;;;;;;;;17.03;60.54;95633.53;4219156;28;5679;-64
2023/10/25 09:49:43;;;;;;;;;;;;;;;17.03;60.52;95638.88;4219034;28;5858;-64
2023/10/25 09:51:59;;;;;;;;;;;;;;;17.00;60.71;95631.41;4224046;28;5650;-64
2023/10/25 09:54:09;;;;;;;;;;;;;;;17.00;60.49;95631.41;4219273;28;5117;-64
2023/10/25 09:56:13;;;;;;;;;;;;;;;16.99;60.49;95633.25;4210739;28;7727;-64
2023/10/25 09:58:18;;;;;;;;;;;;;;;16.98;60.57;95636.97;4218624;28;5734;-64
2023/10/25 10:00:22;;;;;;;;;;;;;;;16.96;60.42;95631.09;4218897;28;6499;-64
2023/10/25 10:02:35;;;;;;;;;;;;;;;16.96;60.55;95632.97;4218377;28;5821;-63
2023/10/25 10:04:45;;;;;;;;;;;;;;;16.96;60.67;95632.97;4219029;28;5655;-64
2023/10/25 10:07:00;;;;;;;;;;;;;;;16.95;60.59;95632.16;4215985;28;5667;-62
2023/10/25 10:09:17;;;;;;;;;;;;;;;16.95;60.83;95634.84;4220626;28;5670;-64
2023/10/25 10:11:28;;;;;;;;;;;;;;;16.97;60.83;95637.22;4211652;28;5629;-63
2023/10/25 10:13:31;;;;;;;;;;;;;;;16.97;60.92;95626.56;4218472;28;6503;-63
2023/10/25 10:15:58;;;;;;;;;;;;;;;16.97;60.92;95627.34;4214007;28;5775;-64
2023/10/25 10:18:03;;;;;;;;;;;;;;;16.97;60.79;95618.53;4218321;28;5659;-63
2023/10/25 10:20:08;;;;;;;;;;;;;;;16.97;60.87;95619.34;4219105;28;5763;-63
2023/10/25 10:22:13;;;;;;;;;;;;;;;16.95;60.76;95626.03;4219205;28;5964;-65
2023/10/25 10:24:37;;;;;;;;;;;;;;;16.94;60.86;95629.75;4218554;28;5615;-65
2023/10/25 10:26:51;;;;;;;;;;;;;;;16.91;60.87;95635.63;4217889;28;5899;-63
2023/10/25 10:28:55;;;;;;;;;;;;;;;16.90;61.04;95624.16;4216239;28;5737;-64
2023/10/25 10:30:57;;;;;;;;;;;;;;;16.89;61.00;95627.88;4214530;28;5743;-64
2023/10/25 10:33:04;;;;;;;;;;;;;;;16.88;61.13;95616.41;4218125;28;5758;-64
2023/10/25 10:35:20;;;;;;;;;;;;;;;16.91;61.00;95631.09;4218417;28;6375;-64
2023/10/25 10:37:26;;;;;;;;;;;;;;;16.89;61.17;95633.22;4211970;28;6334;-64
2023/10/25 10:39:28;;;;;;;;;;;;;;;16.88;61.15;95632.41;4218410;28;5851;-63
2023/10/25 10:41:32;;;;;;;;;;;;;;;16.86;61.32;95623.03;4218363;28;5754;-62
2023/10/25 10:43:35;;;;;;;;;;;;;;;16.85;61.54;95638.25;4218218;28;6516;-64
2023/10/25 10:45:43;;;;;;;;;;;;;;;16.85;61.33;95621.44;4218330;28;5878;-64
2023/10/25 10:47:52;;;;;;;;;;;;;;;16.87;61.46;95619.31;4216101;28;5679;-64
2023/10/25 10:50:02;;;;;;;;;;;;;;;16.86;61.37;95621.19;4217751;28;6721;-64
2023/10/25 10:52:06;;;;;;;;;;;;;;;16.86;61.58;95629.19;4217981;28;5732;-65
2023/10/25 10:54:11;;;;;;;;;;;;;;;16.87;61.71;95628.16;4217881;28;5642;-64
2023/10/25 10:56:14;;;;;;;;;;;;;;;16.86;61.59;95629.19;4217774;28;5668;-64